Gennaro Ievoli — 9HA3007 — position and weather

sailwx.info

Track history (hours):
 
Tides and Currents Weather Stations Pressure Air Temp Water Temp Dewpoint Dewpoint Depression Visibility Wind Speed Wind Dir Waves Ship Positions

Gennaro Ievoli

Last reported at 2016-Jul-26 07:27 UTC. Time now 2016-Jul-27 11:33 UTC.
Position N 32°02' E 119°58'.

Length 171 m; draft 10.5 m.

Type: Ship (hazmat cat B). MMSI: 229031000.

Date/timePositionNaut miles runAvg speedWind from/ knotsBaromVisibWave heightAir tempDewpointWater temp
2016-Jul-26 07:27N 32°02' E 119°58'5 5.5
2016-Jul-26 06:33N 31°58' E 120°02'16 8.0
2016-Jul-26 04:31N 31°58' E 120°21'5 4.8
2016-Jul-26 03:33N 31°58' E 120°26'0 0.0
2016-Jul-26 02:27N 31°58' E 120°26'0 0.0
2016-Jul-26 01:32N 31°58' E 120°26'0 0.0
2016-Jul-26 00:32N 31°58' E 120°26'0 0.0
2016-Jul-25 23:32N 31°58' E 120°26'0 0.0
2016-Jul-25 22:30N 31°58' E 120°26'0 0.0
2016-Jul-25 21:12N 31°58' E 120°26'0 0.0
2016-Jul-25 20:17N 31°58' E 120°26'0 0.0
2016-Jul-25 19:23N 31°58' E 120°26'0 0.0
2016-Jul-25 18:28N 31°58' E 120°26'0 0.0
2016-Jul-25 17:28N 31°58' E 120°26'0 0.0
2016-Jul-25 16:21N 31°58' E 120°26'0 0.0
2016-Jul-25 15:33N 31°58' E 120°26'0 0.0
2016-Jul-25 14:32N 31°58' E 120°26'0 0.0
2016-Jul-25 13:32N 31°58' E 120°26'0 0.0
2016-Jul-25 12:31N 31°58' E 120°26'0 0.0
2016-Jul-25 11:31N 31°58' E 120°26'0 0.0
2016-Jul-25 10:24N 31°58' E 120°26'0 0.0
2016-Jul-25 09:33N 31°58' E 120°26'0 0.0
2016-Jul-25 08:29N 31°58' E 120°26'0 0.0
2016-Jul-25 07:29N 31°58' E 120°26'0 0.0
2016-Jul-25 06:33N 31°58' E 120°26'0 0.0
2016-Jul-25 05:28N 31°58' E 120°26'3 2.8
2016-Jul-25 04:33N 32°01' E 120°27'9 8.0
2016-Jul-25 03:24N 31°60' E 120°38'8 9.2
2016-Jul-25 02:32N 32°01' E 120°47'21 8.6
2016-Jul-25 00:07N 31°46' E 121°04'610.0
2016-Jul-24 23:33N 31°42' E 121°09'1010.4
2016-Jul-24 22:34N 31°35' E 121°18'3 2.8
2016-Jul-24 21:33N 31°34' E 121°21'0 0.2
2016-Jul-24 20:32N 31°34' E 121°21'0 0.0
2016-Jul-24 19:32N 31°34' E 121°21'0 0.0
2016-Jul-24 18:28N 31°34' E 121°21'0 0.1
2016-Jul-24 17:31N 31°34' E 121°21'0 0.1
2016-Jul-24 16:28N 31°34' E 121°21'0 0.0
2016-Jul-24 15:33N 31°34' E 121°21'0 0.0
2016-Jul-24 14:33N 31°34' E 121°21'0 0.0
2016-Jul-24 13:32N 31°34' E 121°21'0 0.1
2016-Jul-24 12:29N 31°34' E 121°21'0 0.1
2016-Jul-24 11:33N 31°34' E 121°21'0 0.1
2016-Jul-24 10:33N 31°34' E 121°21'9 8.6
2016-Jul-24 09:33N 31°28' E 121°28'8 8.0
2016-Jul-24 08:33N 31°23' E 121°35'1410.6
2016-Jul-24 07:14N 31°17' E 121°50'3111.3
2016-Jul-24 04:32N 31°06' E 122°24'11 9.6
2016-Jul-24 03:24N 31°08' E 122°36'  
Track history (hours):
 
Tides and Currents Weather Stations Pressure Air Temp Water Temp Dewpoint Dewpoint Depression Visibility Wind Speed Wind Dir Waves Ship Positions

Gennaro Ievoli

Last reported at 2016-Jul-26 07:27 UTC. Time now 2016-Jul-27 11:33 UTC.
Position N 32°02' E 119°58'.

Length 171 m; draft 10.5 m.

Type: Ship (hazmat cat B). MMSI: 229031000.

Date/timePositionNaut miles runAvg speedWind from/ knotsBaromVisibWave heightAir tempDewpointWater temp
2016-Jul-26 07:27N 32°02' E 119°58'5 5.5
2016-Jul-26 06:33N 31°58' E 120°02'16 8.0
2016-Jul-26 04:31N 31°58' E 120°21'5 4.8
2016-Jul-26 03:33N 31°58' E 120°26'0 0.0
2016-Jul-26 02:27N 31°58' E 120°26'0 0.0
2016-Jul-26 01:32N 31°58' E 120°26'0 0.0
2016-Jul-26 00:32N 31°58' E 120°26'0 0.0
2016-Jul-25 23:32N 31°58' E 120°26'0 0.0
2016-Jul-25 22:30N 31°58' E 120°26'0 0.0
2016-Jul-25 21:12N 31°58' E 120°26'0 0.0
2016-Jul-25 20:17N 31°58' E 120°26'0 0.0
2016-Jul-25 19:23N 31°58' E 120°26'0 0.0
2016-Jul-25 18:28N 31°58' E 120°26'0 0.0
2016-Jul-25 17:28N 31°58' E 120°26'0 0.0
2016-Jul-25 16:21N 31°58' E 120°26'0 0.0
2016-Jul-25 15:33N 31°58' E 120°26'0 0.0
2016-Jul-25 14:32N 31°58' E 120°26'0 0.0
2016-Jul-25 13:32N 31°58' E 120°26'0 0.0
2016-Jul-25 12:31N 31°58' E 120°26'0 0.0
2016-Jul-25 11:31N 31°58' E 120°26'0 0.0
2016-Jul-25 10:24N 31°58' E 120°26'0 0.0
2016-Jul-25 09:33N 31°58' E 120°26'0 0.0
2016-Jul-25 08:29N 31°58' E 120°26'0 0.0
2016-Jul-25 07:29N 31°58' E 120°26'0 0.0
2016-Jul-25 06:33N 31°58' E 120°26'0 0.0
2016-Jul-25 05:28N 31°58' E 120°26'3 2.8
2016-Jul-25 04:33N 32°01' E 120°27'9 8.0
2016-Jul-25 03:24N 31°60' E 120°38'8 9.2
2016-Jul-25 02:32N 32°01' E 120°47'21 8.6
2016-Jul-25 00:07N 31°46' E 121°04'610.0
2016-Jul-24 23:33N 31°42' E 121°09'1010.4
2016-Jul-24 22:34N 31°35' E 121°18'3 2.8
2016-Jul-24 21:33N 31°34' E 121°21'0 0.2
2016-Jul-24 20:32N 31°34' E 121°21'0 0.0
2016-Jul-24 19:32N 31°34' E 121°21'0 0.0
2016-Jul-24 18:28N 31°34' E 121°21'0 0.1
2016-Jul-24 17:31N 31°34' E 121°21'0 0.1
2016-Jul-24 16:28N 31°34' E 121°21'0 0.0
2016-Jul-24 15:33N 31°34' E 121°21'0 0.0
2016-Jul-24 14:33N 31°34' E 121°21'0 0.0
2016-Jul-24 13:32N 31°34' E 121°21'0 0.1
2016-Jul-24 12:29N 31°34' E 121°21'0 0.1
2016-Jul-24 11:33N 31°34' E 121°21'0 0.1
2016-Jul-24 10:33N 31°34' E 121°21'9 8.6
2016-Jul-24 09:33N 31°28' E 121°28'8 8.0
2016-Jul-24 08:33N 31°23' E 121°35'1410.6
2016-Jul-24 07:14N 31°17' E 121°50'3111.3
2016-Jul-24 04:32N 31°06' E 122°24'11 9.6
2016-Jul-24 03:24N 31°08' E 122°36'  

Dump ship's entire track history